sensor_id;sensor_type;location;lat;lon;timestamp;pressure;altitude;pressure_sealevel;temperature;humidity
43450;BME280;29041;42.266;23.110;2022-12-20T00:02:04;97621.50;;;1.15;81.73
43450;BME280;29041;42.266;23.110;2022-12-20T00:08:01;97603.03;;;1.58;80.96
43450;BME280;29041;42.266;23.110;2022-12-20T00:11:02;97621.66;;;1.20;80.88
43450;BME280;29041;42.266;23.110;2022-12-20T00:13:53;97619.97;;;1.00;82.69
43450;BME280;29041;42.266;23.110;2022-12-20T00:16:44;97593.66;;;0.80;81.91
43450;BME280;29041;42.266;23.110;2022-12-20T00:19:33;97616.47;;;1.06;82.62
43450;BME280;29041;42.266;23.110;2022-12-20T00:25:44;97596.34;;;1.05;83.89
43450;BME280;29041;42.266;23.110;2022-12-20T00:28:44;97562.22;;;0.97;83.88
43450;BME280;29041;42.266;23.110;2022-12-20T00:31:36;97569.88;;;1.74;86.32
43450;BME280;29041;42.266;23.110;2022-12-20T00:34:27;97592.31;;;1.72;83.65
43450;BME280;29041;42.266;23.110;2022-12-20T00:37:21;97618.34;;;1.50;81.25
43450;BME280;29041;42.266;23.110;2022-12-20T00:40:16;97623.84;;;1.73;80.56
43450;BME280;29041;42.266;23.110;2022-12-20T00:43:16;97614.47;;;1.27;81.96
43450;BME280;29041;42.266;23.110;2022-12-20T00:46:24;97584.97;;;-0.18;84.82
43450;BME280;29041;42.266;23.110;2022-12-20T00:49:57;97575.22;;;0.73;82.65
43450;BME280;29041;42.266;23.110;2022-12-20T00:53:02;97568.41;;;0.59;83.22
43450;BME280;29041;42.266;23.110;2022-12-20T00:55:56;97596.53;;;1.10;81.79
43450;BME280;29041;42.266;23.110;2022-12-20T00:59:05;97597.81;;;0.69;84.21
43450;BME280;29041;42.266;23.110;2022-12-20T01:05:39;97610.00;;;1.02;84.19
43450;BME280;29041;42.266;23.110;2022-12-20T01:08:35;97569.22;;;0.53;83.93
43450;BME280;29041;42.266;23.110;2022-12-20T01:11:36;97590.91;;;0.29;85.91
43450;BME280;29041;42.266;23.110;2022-12-20T01:14:25;97568.72;;;-0.08;87.55
43450;BME280;29041;42.266;23.110;2022-12-20T01:17:18;97575.53;;;0.13;88.04
43450;BME280;29041;42.266;23.110;2022-12-20T01:20:11;97579.88;;;0.39;85.83
43450;BME280;29041;42.266;23.110;2022-12-20T01:23:07;97576.88;;;0.68;85.49
43450;BME280;29041;42.266;23.110;2022-12-20T01:25:57;97546.72;;;0.75;86.38
43450;BME280;29041;42.266;23.110;2022-12-20T01:28:46;97569.13;;;0.34;87.73
43450;BME280;29041;42.266;23.110;2022-12-20T01:31:35;97545.75;;;-0.14;87.32
43450;BME280;29041;42.266;23.110;2022-12-20T01:34:32;97508.94;;;0.04;86.19
43450;BME280;29041;42.266;23.110;2022-12-20T01:37:21;97574.25;;;0.29;87.39
43450;BME280;29041;42.266;23.110;2022-12-20T01:40:25;97536.22;;;0.30;87.16
43450;BME280;29041;42.266;23.110;2022-12-20T02:50:31;97513.06;;;1.52;79.65
43450;BME280;29041;42.266;23.110;2022-12-20T02:53:21;97540.31;;;1.78;78.56
43450;BME280;29041;42.266;23.110;2022-12-20T02:56:11;97536.44;;;0.92;82.03
43450;BME280;29041;42.266;23.110;2022-12-20T02:59:05;97525.66;;;0.62;81.25
43450;BME280;29041;42.266;23.110;2022-12-20T03:02:05;97533.78;;;1.18;80.15
43450;BME280;29041;42.266;23.110;2022-12-20T03:04:54;97524.38;;;1.22;79.90
43450;BME280;29041;42.266;23.110;2022-12-20T03:07:47;97546.69;;;1.07;79.59
43450;BME280;29041;42.266;23.110;2022-12-20T03:10:49;97470.41;;;0.79;79.06
43450;BME280;29041;42.266;23.110;2022-12-20T03:13:37;97545.03;;;1.32;80.02
43450;BME280;29041;42.266;23.110;2022-12-20T03:16:28;97501.06;;;0.61;80.56
43450;BME280;29041;42.266;23.110;2022-12-20T03:19:16;97485.69;;;0.52;80.25
43450;BME280;29041;42.266;23.110;2022-12-20T03:22:03;97503.81;;;0.16;81.49
43450;BME280;29041;42.266;23.110;2022-12-20T03:24:52;97498.31;;;0.50;80.92
43450;BME280;29041;42.266;23.110;2022-12-20T03:27:40;97522.84;;;0.25;82.62
43450;BME280;29041;42.266;23.110;2022-12-20T03:30:27;97512.03;;;0.65;81.60
43450;BME280;29041;42.266;23.110;2022-12-20T03:33:15;97512.69;;;0.86;81.14
43450;BME280;29041;42.266;23.110;2022-12-20T03:36:02;97530.44;;;0.14;81.20
43450;BME280;29041;42.266;23.110;2022-12-20T03:38:51;97495.72;;;0.11;84.48
43450;BME280;29041;42.266;23.110;2022-12-20T03:41:40;97529.09;;;0.37;81.96
43450;BME280;29041;42.266;23.110;2022-12-20T03:44:28;97533.38;;;0.31;81.42
43450;BME280;29041;42.266;23.110;2022-12-20T03:47:17;97493.13;;;0.36;83.64
43450;BME280;29041;42.266;23.110;2022-12-20T03:50:17;97495.47;;;-0.26;83.46
43450;BME280;29041;42.266;23.110;2022-12-20T03:53:08;97526.88;;;-0.18;83.04
43450;BME280;29041;42.266;23.110;2022-12-20T03:56:25;97517.28;;;0.40;83.06
43450;BME280;29041;42.266;23.110;2022-12-20T03:59:17;97543.16;;;0.63;81.60
43450;BME280;29041;42.266;23.110;2022-12-20T04:02:16;97502.34;;;-0.25;84.10
43450;BME280;29041;42.266;23.110;2022-12-20T04:05:07;97504.81;;;-0.30;83.22
43450;BME280;29041;42.266;23.110;2022-12-20T04:08:07;97553.09;;;-0.17;84.83
43450;BME280;29041;42.266;23.110;2022-12-20T04:11:10;97466.44;;;-0.92;85.65
43450;BME280;29041;42.266;23.110;2022-12-20T04:14:05;97528.41;;;-0.36;86.18
43450;BME280;29041;42.266;23.110;2022-12-20T04:16:55;97486.88;;;-0.67;86.38
43450;BME280;29041;42.266;23.110;2022-12-20T04:19:46;97477.19;;;-0.93;85.12
43450;BME280;29041;42.266;23.110;2022-12-20T04:25:10;97505.16;;;-0.86;86.02
43450;BME280;29041;42.266;23.110;2022-12-20T04:28:11;97524.63;;;-1.07;86.28
43450;BME280;29041;42.266;23.110;2022-12-20T04:31:04;97492.78;;;-0.78;86.90
43450;BME280;29041;42.266;23.110;2022-12-20T04:34:19;97477.13;;;-0.60;84.02
43450;BME280;29041;42.266;23.110;2022-12-20T04:37:07;97472.66;;;-0.66;84.15
43450;BME280;29041;42.266;23.110;2022-12-20T04:39:57;97517.09;;;-0.63;84.48
43450;BME280;29041;42.266;23.110;2022-12-20T04:46:48;97498.69;;;-0.90;84.75
43450;BME280;29041;42.266;23.110;2022-12-20T04:50:05;97498.28;;;-0.93;83.51
43450;BME280;29041;42.266;23.110;2022-12-20T04:52:59;97460.38;;;-1.73;86.84
43450;BME280;29041;42.266;23.110;2022-12-20T04:56:07;97440.31;;;-1.94;88.06
43450;BME280;29041;42.266;23.110;2022-12-20T04:58:59;97454.91;;;-1.31;86.31
43450;BME280;29041;42.266;23.110;2022-12-20T05:05:36;97507.63;;;-1.18;86.09
43450;BME280;29041;42.266;23.110;2022-12-20T05:08:27;97516.50;;;-1.72;89.92
43450;BME280;29041;42.266;23.110;2022-12-20T05:11:17;97492.56;;;-1.84;88.52
43450;BME280;29041;42.266;23.110;2022-12-20T05:14:09;97520.53;;;-1.77;88.01
43450;BME280;29041;42.266;23.110;2022-12-20T05:16:56;97466.00;;;-1.89;87.89
43450;BME280;29041;42.266;23.110;2022-12-20T05:19:43;97491.59;;;-1.23;85.97
43450;BME280;29041;42.266;23.110;2022-12-20T05:22:32;97493.63;;;-0.98;84.96
43450;BME280;29041;42.266;23.110;2022-12-20T05:25:38;97480.88;;;-1.15;84.84
43450;BME280;29041;42.266;23.110;2022-12-20T05:28:47;97507.81;;;-0.79;84.78
43450;BME280;29041;42.266;23.110;2022-12-20T05:31:40;97493.19;;;-0.95;83.69
43450;BME280;29041;42.266;23.110;2022-12-20T05:34:30;97479.00;;;-0.87;83.49
43450;BME280;29041;42.266;23.110;2022-12-20T05:37:20;97509.25;;;-1.10;85.64
43450;BME280;29041;42.266;23.110;2022-12-20T05:40:12;97500.53;;;-1.04;85.55
43450;BME280;29041;42.266;23.110;2022-12-20T05:43:05;97458.13;;;-0.96;84.33
43450;BME280;29041;42.266;23.110;2022-12-20T05:45:59;97559.88;;;-1.41;86.23
43450;BME280;29041;42.266;23.110;2022-12-20T05:48:51;97461.28;;;-2.21;87.53
43450;BME280;29041;42.266;23.110;2022-12-20T05:51:38;97469.84;;;-1.92;88.31
43450;BME280;29041;42.266;23.110;2022-12-20T05:54:27;97489.94;;;-1.78;88.38
43450;BME280;29041;42.266;23.110;2022-12-20T05:57:15;97534.00;;;-1.04;87.31
43450;BME280;29041;42.266;23.110;2022-12-20T06:00:03;97544.09;;;-0.88;86.29
43450;BME280;29041;42.266;23.110;2022-12-20T06:02:51;97493.44;;;-1.57;85.00
43450;BME280;29041;42.266;23.110;2022-12-20T06:05:38;97539.66;;;-1.28;85.49
43450;BME280;29041;42.266;23.110;2022-12-20T06:08:45;97545.94;;;-1.35;87.34
43450;BME280;29041;42.266;23.110;2022-12-20T06:11:36;97502.28;;;-1.92;87.59
43450;BME280;29041;42.266;23.110;2022-12-20T06:14:25;97529.53;;;-1.17;85.42
43450;BME280;29041;42.266;23.110;2022-12-20T06:17:12;97526.63;;;-1.56;85.97
43450;BME280;29041;42.266;23.110;2022-12-20T06:19:59;97520.56;;;-1.70;86.28
43450;BME280;29041;42.266;23.110;2022-12-20T06:22:46;97569.44;;;-1.47;86.07
43450;BME280;29041;42.266;23.110;2022-12-20T06:25:33;97486.63;;;-2.13;86.16
43450;BME280;29041;42.266;23.110;2022-12-20T06:28:21;97473.88;;;-2.10;86.10
43450;BME280;29041;42.266;23.110;2022-12-20T06:31:10;97536.47;;;-2.05;86.75
43450;BME280;29041;42.266;23.110;2022-12-20T06:33:57;97552.78;;;-1.61;86.94
43450;BME280;29041;42.266;23.110;2022-12-20T06:36:44;97510.47;;;-2.21;87.38
43450;BME280;29041;42.266;23.110;2022-12-20T06:39:32;97509.31;;;-2.05;86.81
43450;BME280;29041;42.266;23.110;2022-12-20T06:42:19;97531.09;;;-1.63;86.36
43450;BME280;29041;42.266;23.110;2022-12-20T06:45:07;97531.91;;;-1.56;86.33
43450;BME280;29041;42.266;23.110;2022-12-20T06:47:56;97535.78;;;-1.45;85.90
43450;BME280;29041;42.266;23.110;2022-12-20T06:50:43;97532.38;;;-1.25;86.44
43450;BME280;29041;42.266;23.110;2022-12-20T06:53:30;97508.56;;;-1.79;86.18
43450;BME280;29041;42.266;23.110;2022-12-20T06:56:17;97532.50;;;0.44;82.65
43450;BME280;29041;42.266;23.110;2022-12-20T06:59:05;97526.56;;;3.03;70.19
43450;BME280;29041;42.266;23.110;2022-12-20T07:01:55;97527.31;;;6.52;59.75
43450;BME280;29041;42.266;23.110;2022-12-20T07:04:43;97522.75;;;7.12;57.08
43450;BME280;29041;42.266;23.110;2022-12-20T07:07:30;97530.97;;;4.09;63.58
43450;BME280;29041;42.266;23.110;2022-12-20T07:10:17;97512.72;;;6.92;56.82
43450;BME280;29041;42.266;23.110;2022-12-20T07:13:04;97498.75;;;9.58;43.76
43450;BME280;29041;42.266;23.110;2022-12-20T07:15:57;97491.47;;;9.69;44.40
43450;BME280;29041;42.266;23.110;2022-12-20T07:18:48;97496.19;;;8.86;43.62
43450;BME280;29041;42.266;23.110;2022-12-20T07:21:36;97489.41;;;10.16;39.33
43450;BME280;29041;42.266;23.110;2022-12-20T07:24:24;97493.47;;;8.55;42.36
43450;BME280;29041;42.266;23.110;2022-12-20T07:27:11;97476.50;;;8.13;43.35
43450;BME280;29041;42.266;23.110;2022-12-20T07:29:58;97478.75;;;8.63;42.58
43450;BME280;29041;42.266;23.110;2022-12-20T07:32:50;97486.69;;;8.32;43.44
43450;BME280;29041;42.266;23.110;2022-12-20T07:35:37;97479.47;;;8.42;42.65
43450;BME280;29041;42.266;23.110;2022-12-20T07:38:26;97483.50;;;8.35;42.88
43450;BME280;29041;42.266;23.110;2022-12-20T07:41:15;97491.06;;;8.64;42.72
43450;BME280;29041;42.266;23.110;2022-12-20T07:44:03;97466.06;;;10.61;37.58
43450;BME280;29041;42.266;23.110;2022-12-20T07:46:50;97463.91;;;10.63;37.22
43450;BME280;29041;42.266;23.110;2022-12-20T07:49:38;97479.28;;;8.85;41.38
43450;BME280;29041;42.266;23.110;2022-12-20T07:52:26;97468.47;;;9.52;40.82
43450;BME280;29041;42.266;23.110;2022-12-20T07:55:16;97484.91;;;8.89;42.29
43450;BME280;29041;42.266;23.110;2022-12-20T07:58:05;97481.41;;;6.82;45.77
43450;BME280;29041;42.266;23.110;2022-12-20T08:00:54;97478.22;;;8.66;42.72
43450;BME280;29041;42.266;23.110;2022-12-20T08:03:44;97469.91;;;8.88;41.45
43450;BME280;29041;42.266;23.110;2022-12-20T08:06:35;97467.50;;;9.93;40.56
43450;BME280;29041;42.266;23.110;2022-12-20T08:09:23;97474.75;;;8.70;41.92
43450;BME280;29041;42.266;23.110;2022-12-20T08:12:14;97462.28;;;10.23;39.72
43450;BME280;29041;42.266;23.110;2022-12-20T08:15:02;97467.22;;;9.09;40.83
43450;BME280;29041;42.266;23.110;2022-12-20T08:17:50;97471.78;;;8.51;41.64
43450;BME280;29041;42.266;23.110;2022-12-20T08:20:37;97461.13;;;7.77;42.84
43450;BME280;29041;42.266;23.110;2022-12-20T08:23:27;97467.03;;;7.90;43.38
43450;BME280;29041;42.266;23.110;2022-12-20T08:26:14;97461.63;;;9.86;38.73
43450;BME280;29041;42.266;23.110;2022-12-20T08:29:03;97446.59;;;8.99;40.34
43450;BME280;29041;42.266;23.110;2022-12-20T08:31:50;97458.63;;;9.27;40.01
43450;BME280;29041;42.266;23.110;2022-12-20T08:34:38;97444.72;;;9.15;40.47
43450;BME280;29041;42.266;23.110;2022-12-20T08:37:25;97463.47;;;7.63;45.17
43450;BME280;29041;42.266;23.110;2022-12-20T08:40:13;97462.31;;;6.09;48.11
43450;BME280;29041;42.266;23.110;2022-12-20T08:43:00;97455.94;;;5.43;50.83
43450;BME280;29041;42.266;23.110;2022-12-20T08:45:52;97457.28;;;4.38;53.55
43450;BME280;29041;42.266;23.110;2022-12-20T08:48:40;97456.94;;;4.18;54.39
43450;BME280;29041;42.266;23.110;2022-12-20T08:51:27;97444.56;;;4.91;52.55
43450;BME280;29041;42.266;23.110;2022-12-20T08:54:14;97451.53;;;5.32;52.94
43450;BME280;29041;42.266;23.110;2022-12-20T08:57:02;97438.28;;;4.98;52.50
43450;BME280;29041;42.266;23.110;2022-12-20T08:59:49;97438.72;;;5.29;51.50
43450;BME280;29041;42.266;23.110;2022-12-20T09:02:38;97434.97;;;5.07;51.95
43450;BME280;29041;42.266;23.110;2022-12-20T09:05:25;97435.16;;;5.23;51.53
43450;BME280;29041;42.266;23.110;2022-12-20T09:08:13;97439.50;;;5.51;51.67
43450;BME280;29041;42.266;23.110;2022-12-20T09:11:05;97444.22;;;5.22;51.73
43450;BME280;29041;42.266;23.110;2022-12-20T09:13:55;97434.50;;;5.33;51.36
43450;BME280;29041;42.266;23.110;2022-12-20T09:16:42;97425.19;;;5.13;51.68
43450;BME280;29041;42.266;23.110;2022-12-20T09:19:31;97424.25;;;5.24;51.83
43450;BME280;29041;42.266;23.110;2022-12-20T09:22:18;97404.84;;;4.68;53.05
43450;BME280;29041;42.266;23.110;2022-12-20T09:25:06;97392.41;;;5.13;51.19
43450;BME280;29041;42.266;23.110;2022-12-20T09:27:53;97413.94;;;5.50;51.59
43450;BME280;29041;42.266;23.110;2022-12-20T09:30:41;97396.97;;;5.12;51.97
43450;BME280;29041;42.266;23.110;2022-12-20T09:33:29;97395.91;;;4.96;52.56
43450;BME280;29041;42.266;23.110;2022-12-20T09:36:19;97407.84;;;5.77;51.52
43450;BME280;29041;42.266;23.110;2022-12-20T09:39:07;97398.25;;;5.32;52.49
43450;BME280;29041;42.266;23.110;2022-12-20T09:41:56;97386.72;;;5.70;51.03
43450;BME280;29041;42.266;23.110;2022-12-20T09:44:43;97375.25;;;5.70;50.72
43450;BME280;29041;42.266;23.110;2022-12-20T09:47:32;97392.66;;;5.78;51.37
43450;BME280;29041;42.266;23.110;2022-12-20T09:50:27;97374.91;;;5.61;51.33
43450;BME280;29041;42.266;23.110;2022-12-20T09:53:29;97368.50;;;5.90;50.58
43450;BME280;29041;42.266;23.110;2022-12-20T09:56:24;97366.72;;;6.23;50.21
43450;BME280;29041;42.266;23.110;2022-12-20T09:59:14;97361.13;;;5.97;51.00
43450;BME280;29041;42.266;23.110;2022-12-20T10:02:07;97353.34;;;5.90;50.43
43450;BME280;29041;42.266;23.110;2022-12-20T10:04:55;97345.72;;;5.99;50.43
43450;BME280;29041;42.266;23.110;2022-12-20T10:07:49;97323.88;;;6.77;49.33
43450;BME280;29041;42.266;23.110;2022-12-20T10:10:50;97317.38;;;6.63;48.49
43450;BME280;29041;42.266;23.110;2022-12-20T10:13:49;97326.03;;;6.86;49.08
43450;BME280;29041;42.266;23.110;2022-12-20T10:16:43;97317.84;;;6.49;49.13
43450;BME280;29041;42.266;23.110;2022-12-20T10:19:56;97324.81;;;6.56;48.31
43450;BME280;29041;42.266;23.110;2022-12-20T10:22:50;97301.91;;;6.60;48.96
43450;BME280;29041;42.266;23.110;2022-12-20T10:25:40;97312.59;;;6.65;48.80
43450;BME280;29041;42.266;23.110;2022-12-20T10:28:30;97305.22;;;6.82;48.48
43450;BME280;29041;42.266;23.110;2022-12-20T10:31:20;97297.22;;;7.67;46.93
43450;BME280;29041;42.266;23.110;2022-12-20T10:34:07;97291.66;;;6.94;48.06
43450;BME280;29041;42.266;23.110;2022-12-20T10:37:10;97274.66;;;7.21;48.19
43450;BME280;29041;42.266;23.110;2022-12-20T10:39:57;97272.25;;;7.20;48.52
43450;BME280;29041;42.266;23.110;2022-12-20T10:42:48;97260.53;;;6.62;48.44
43450;BME280;29041;42.266;23.110;2022-12-20T10:45:38;97258.13;;;7.29;48.11
43450;BME280;29041;42.266;23.110;2022-12-20T10:48:31;97257.41;;;7.65;47.63
43450;BME280;29041;42.266;23.110;2022-12-20T10:51:20;97226.06;;;7.24;47.73
43450;BME280;29041;42.266;23.110;2022-12-20T10:54:21;97246.69;;;7.60;47.53
43450;BME280;29041;42.266;23.110;2022-12-20T10:57:17;97241.78;;;7.10;48.33
43450;BME280;29041;42.266;23.110;2022-12-20T11:00:06;97227.69;;;7.30;47.70
43450;BME280;29041;42.266;23.110;2022-12-20T11:03:04;97235.38;;;7.17;48.51
43450;BME280;29041;42.266;23.110;2022-12-20T11:05:56;97206.56;;;7.19;47.77
43450;BME280;29041;42.266;23.110;2022-12-20T11:08:44;97225.56;;;7.63;47.65
43450;BME280;29041;42.266;23.110;2022-12-20T11:11:32;97223.41;;;7.24;48.77
43450;BME280;29041;42.266;23.110;2022-12-20T11:14:20;97215.66;;;7.38;47.60
43450;BME280;29041;42.266;23.110;2022-12-20T11:17:20;97212.69;;;8.48;44.79
43450;BME280;29041;42.266;23.110;2022-12-20T11:20:24;97203.94;;;7.70;46.50
43450;BME280;29041;42.266;23.110;2022-12-20T11:23:20;97206.00;;;8.40;45.70
43450;BME280;29041;42.266;23.110;2022-12-20T11:26:22;97198.50;;;8.27;43.87
43450;BME280;29041;42.266;23.110;2022-12-20T11:29:24;97197.47;;;8.07;44.07
43450;BME280;29041;42.266;23.110;2022-12-20T11:32:27;97185.59;;;8.60;44.07
43450;BME280;29041;42.266;23.110;2022-12-20T11:35:28;97182.97;;;8.34;44.38
43450;BME280;29041;42.266;23.110;2022-12-20T11:38:31;97168.72;;;8.65;42.07
43450;BME280;29041;42.266;23.110;2022-12-20T11:41:27;97181.22;;;7.78;44.40
43450;BME280;29041;42.266;23.110;2022-12-20T11:44:23;97171.31;;;7.68;44.72
43450;BME280;29041;42.266;23.110;2022-12-20T11:47:30;97162.84;;;8.63;42.07
43450;BME280;29041;42.266;23.110;2022-12-20T11:50:35;97159.06;;;8.74;42.01
43450;BME280;29041;42.266;23.110;2022-12-20T11:53:31;97156.03;;;8.05;44.22
43450;BME280;29041;42.266;23.110;2022-12-20T11:56:24;97153.94;;;7.76;44.41
43450;BME280;29041;42.266;23.110;2022-12-20T11:59:19;97133.63;;;7.59;44.60
43450;BME280;29041;42.266;23.110;2022-12-20T12:02:13;97108.16;;;8.03;43.69
43450;BME280;29041;42.266;23.110;2022-12-20T12:05:06;97140.69;;;8.36;42.36
43450;BME280;29041;42.266;23.110;2022-12-20T12:07:57;97145.78;;;8.33;42.81
43450;BME280;29041;42.266;23.110;2022-12-20T12:10:55;97141.34;;;9.58;40.75
43450;BME280;29041;42.266;23.110;2022-12-20T12:13:44;97133.53;;;8.87;41.88
43450;BME280;29041;42.266;23.110;2022-12-20T12:16:34;97136.81;;;9.18;42.36
43450;BME280;29041;42.266;23.110;2022-12-20T12:19:33;97133.97;;;8.44;40.88
43450;BME280;29041;42.266;23.110;2022-12-20T12:22:27;97133.75;;;8.91;41.36
43450;BME280;29041;42.266;23.110;2022-12-20T12:25:18;97119.81;;;9.33;39.35
43450;BME280;29041;42.266;23.110;2022-12-20T12:28:08;97128.25;;;9.16;40.29
43450;BME280;29041;42.266;23.110;2022-12-20T12:31:00;97119.75;;;8.59;40.15
43450;BME280;29041;42.266;23.110;2022-12-20T12:34:03;97120.31;;;8.56;41.02
43450;BME280;29041;42.266;23.110;2022-12-20T12:37:37;97116.59;;;8.47;42.26
43450;BME280;29041;42.266;23.110;2022-12-20T12:40:43;97116.06;;;8.39;42.79
43450;BME280;29041;42.266;23.110;2022-12-20T12:43:43;97114.53;;;8.83;42.00
43450;BME280;29041;42.266;23.110;2022-12-20T12:46:33;97106.38;;;9.04;41.31
43450;BME280;29041;42.266;23.110;2022-12-20T12:49:23;97113.09;;;8.51;42.02
43450;BME280;29041;42.266;23.110;2022-12-20T12:52:26;97108.88;;;8.90;41.38
43450;BME280;29041;42.266;23.110;2022-12-20T12:55:46;97110.72;;;8.34;42.50
43450;BME280;29041;42.266;23.110;2022-12-20T12:58:33;97107.56;;;8.22;43.21
43450;BME280;29041;42.266;23.110;2022-12-20T13:01:49;97104.88;;;8.22;42.82
43450;BME280;29041;42.266;23.110;2022-12-20T13:04:52;97107.28;;;8.23;42.15
43450;BME280;29041;42.266;23.110;2022-12-20T13:07:41;97100.00;;;8.34;42.04
43450;BME280;29041;42.266;23.110;2022-12-20T13:10:59;97098.78;;;8.01;41.87
43450;BME280;29041;42.266;23.110;2022-12-20T13:13:47;97085.03;;;9.58;40.01
43450;BME280;29041;42.266;23.110;2022-12-20T13:16:34;97088.50;;;8.39;42.19
43450;BME280;29041;42.266;23.110;2022-12-20T13:19:33;97078.22;;;7.91;43.53
43450;BME280;29041;42.266;23.110;2022-12-20T13:22:21;97096.50;;;7.58;43.39
43450;BME280;29041;42.266;23.110;2022-12-20T13:25:27;97096.34;;;8.15;43.67
43450;BME280;29041;42.266;23.110;2022-12-20T13:28:44;97091.34;;;7.87;44.91
43450;BME280;29041;42.266;23.110;2022-12-20T13:31:32;97089.81;;;7.50;45.09
43450;BME280;29041;42.266;23.110;2022-12-20T13:34:37;97065.78;;;7.40;45.24
43450;BME280;29041;42.266;23.110;2022-12-20T13:37:25;97074.06;;;7.02;46.41
43450;BME280;29041;42.266;23.110;2022-12-20T13:40:18;97072.19;;;6.87;47.45
43450;BME280;29041;42.266;23.110;2022-12-20T13:43:14;97072.72;;;7.05;47.01
43450;BME280;29041;42.266;23.110;2022-12-20T13:46:12;97066.59;;;6.99;46.86
43450;BME280;29041;42.266;23.110;2022-12-20T13:49:01;97053.75;;;7.37;46.31
43450;BME280;29041;42.266;23.110;2022-12-20T13:52:06;97049.44;;;7.62;45.98
43450;BME280;29041;42.266;23.110;2022-12-20T13:54:56;97059.63;;;7.50;45.33
43450;BME280;29041;42.266;23.110;2022-12-20T13:57:44;97063.94;;;7.20;46.62
43450;BME280;29041;42.266;23.110;2022-12-20T14:00:32;97068.91;;;6.44;47.44
43450;BME280;29041;42.266;23.110;2022-12-20T14:03:23;97057.50;;;6.74;48.37
43450;BME280;29041;42.266;23.110;2022-12-20T14:06:12;97067.66;;;6.82;47.97
43450;BME280;29041;42.266;23.110;2022-12-20T14:09:00;97055.63;;;7.21;47.34
43450;BME280;29041;42.266;23.110;2022-12-20T14:11:48;97060.97;;;7.01;47.71
43450;BME280;29041;42.266;23.110;2022-12-20T14:14:40;97059.63;;;6.82;48.34
43450;BME280;29041;42.266;23.110;2022-12-20T14:17:29;97052.41;;;6.62;49.34
43450;BME280;29041;42.266;23.110;2022-12-20T14:20:22;97047.56;;;6.44;50.64
43450;BME280;29041;42.266;23.110;2022-12-20T14:23:11;97034.47;;;6.32;49.51
43450;BME280;29041;42.266;23.110;2022-12-20T14:26:01;97051.19;;;6.17;50.88
43450;BME280;29041;42.266;23.110;2022-12-20T14:28:50;97046.91;;;6.11;51.32
43450;BME280;29041;42.266;23.110;2022-12-20T14:31:40;97042.00;;;5.92;52.46
43450;BME280;29041;42.266;23.110;2022-12-20T14:34:29;97044.03;;;6.23;51.67
43450;BME280;29041;42.266;23.110;2022-12-20T14:37:27;97029.88;;;5.64;52.82
43450;BME280;29041;42.266;23.110;2022-12-20T14:40:17;97036.56;;;5.71;53.17
43450;BME280;29041;42.266;23.110;2022-12-20T14:43:13;97025.88;;;5.61;52.45
43450;BME280;29041;42.266;23.110;2022-12-20T14:46:25;97036.06;;;5.75;53.00
43450;BME280;29041;42.266;23.110;2022-12-20T14:49:22;97031.28;;;5.77;53.63
43450;BME280;29041;42.266;23.110;2022-12-20T14:52:13;97033.63;;;5.68;54.22
43450;BME280;29041;42.266;23.110;2022-12-20T14:55:05;97022.00;;;5.84;55.23
43450;BME280;29041;42.266;23.110;2022-12-20T14:57:54;97024.16;;;5.87;53.95
43450;BME280;29041;42.266;23.110;2022-12-20T15:00:54;97008.31;;;5.22;56.54
43450;BME280;29041;42.266;23.110;2022-12-20T15:03:48;97013.31;;;4.76;58.33
43450;BME280;29041;42.266;23.110;2022-12-20T15:06:39;97010.28;;;5.00;57.25
43450;BME280;29041;42.266;23.110;2022-12-20T15:09:27;97010.22;;;4.89;58.10
43450;BME280;29041;42.266;23.110;2022-12-20T15:12:16;97015.53;;;4.57;58.76
43450;BME280;29041;42.266;23.110;2022-12-20T15:15:04;97007.75;;;4.50;58.07
43450;BME280;29041;42.266;23.110;2022-12-20T15:17:51;96994.63;;;4.38;58.91
43450;BME280;29041;42.266;23.110;2022-12-20T15:20:39;97013.00;;;5.05;58.78
43450;BME280;29041;42.266;23.110;2022-12-20T15:23:26;97005.13;;;4.83;57.75
43450;BME280;29041;42.266;23.110;2022-12-20T15:26:15;97017.69;;;4.33;60.18
43450;BME280;29041;42.266;23.110;2022-12-20T15:29:04;97021.09;;;4.55;59.29
43450;BME280;29041;42.266;23.110;2022-12-20T15:31:58;97022.66;;;4.24;61.14
43450;BME280;29041;42.266;23.110;2022-12-20T15:34:49;97021.63;;;4.03;62.53
43450;BME280;29041;42.266;23.110;2022-12-20T15:37:37;97028.31;;;3.83;61.09
43450;BME280;29041;42.266;23.110;2022-12-20T15:40:24;97033.84;;;4.04;61.61
43450;BME280;29041;42.266;23.110;2022-12-20T15:43:13;97036.88;;;3.90;62.39
43450;BME280;29041;42.266;23.110;2022-12-20T15:46:02;96996.47;;;3.44;62.45
43450;BME280;29041;42.266;23.110;2022-12-20T15:48:49;97034.19;;;3.46;63.15
43450;BME280;29041;42.266;23.110;2022-12-20T15:51:37;97036.19;;;3.56;62.93
43450;BME280;29041;42.266;23.110;2022-12-20T15:54:28;97041.22;;;3.35;64.01
43450;BME280;29041;42.266;23.110;2022-12-20T15:57:15;97031.13;;;3.54;62.98
43450;BME280;29041;42.266;23.110;2022-12-20T16:00:03;97026.53;;;3.49;62.27
43450;BME280;29041;42.266;23.110;2022-12-20T16:02:52;97045.78;;;3.40;63.12
43450;BME280;29041;42.266;23.110;2022-12-20T16:05:42;97047.19;;;3.25;63.17
43450;BME280;29041;42.266;23.110;2022-12-20T16:08:29;97032.00;;;3.04;63.42
43450;BME280;29041;42.266;23.110;2022-12-20T16:11:20;97034.88;;;3.19;64.13
43450;BME280;29041;42.266;23.110;2022-12-20T16:14:12;97031.28;;;3.08;64.57
43450;BME280;29041;42.266;23.110;2022-12-20T16:17:00;97034.31;;;3.00;64.44
43450;BME280;29041;42.266;23.110;2022-12-20T16:19:49;97041.72;;;2.98;64.28
43450;BME280;29041;42.266;23.110;2022-12-20T16:22:36;97034.25;;;3.12;61.92
43450;BME280;29041;42.266;23.110;2022-12-20T16:25:27;97037.75;;;3.35;60.75
43450;BME280;29041;42.266;23.110;2022-12-20T16:28:14;97026.91;;;3.58;59.28
43450;BME280;29041;42.266;23.110;2022-12-20T16:31:09;97038.97;;;3.27;60.12
43450;BME280;29041;42.266;23.110;2022-12-20T16:33:58;97025.00;;;3.14;60.22
43450;BME280;29041;42.266;23.110;2022-12-20T16:36:47;97027.97;;;3.18;60.13
43450;BME280;29041;42.266;23.110;2022-12-20T16:39:34;97031.69;;;3.56;59.72